Rachel Carson — WDF9370 — position and weather

sailwx.info

Track history (hours):
 
Tides and Currents Weather Stations Pressure Air Temp Water Temp Dewpoint Dewpoint Depression Visibility Wind Speed Wind Dir Waves Ship Positions

Oceanographic research ship Rachel Carson (USA)

Owner: Monterey Bay Aquarium Research Institute, Moss Landing, CA. More information available from US FCC via Universal Licensing System and Coast Guard Vessel Documentation Center.

Last reported at 2019-Sep-03 10:45 UTC. Time now 2019-Sep-21 17:20 UTC.
Position N 37°11' W 122°46'.
Warning: this ship's position is 18 days out of date.

Length 42 m; draft 3 m.

Type: Cargo ship. MMSI: 338415000.

Date/timePositionNaut miles runAvg speedWind from/ knotsBaromVisibWave heightAir tempDewpointWater temp
2019-Sep-03 10:45N 37°11' W 122°46'610.2
2019-Sep-03 10:12N 37°15' W 122°51'1110.1
2019-Sep-03 09:09N 37°22' W 123°01'210.3
2019-Sep-03 08:58N 37°23' W 123°03'510.3
2019-Sep-03 08:29N 37°26' W 123°08'510.1
2019-Sep-03 08:01N 37°29' W 123°12'510.0
2019-Sep-03 07:30N 37°33' W 123°17'510.0
2019-Sep-03 06:59N 37°36' W 123°22'5 9.6
2019-Sep-03 06:30N 37°39' W 123°26'5 9.3
2019-Sep-03 06:00N 37°43' W 123°30'5 9.5
2019-Sep-03 05:30N 37°46' W 123°35'5 9.4
2019-Sep-03 04:59N 37°50' W 123°39'5 9.5
2019-Sep-03 04:30N 37°54' W 123°42'5 9.6
2019-Sep-03 04:00N 37°58' W 123°45'510.0
2019-Sep-03 03:30N 38°02' W 123°48'5 9.9
2019-Sep-03 03:01N 38°06' W 123°51'5 9.7
2019-Sep-03 02:29N 38°10' W 123°55'5 9.7
2019-Sep-03 02:00N 38°14' W 123°58'510.0
2019-Sep-03 01:30N 38°18' W 124°02'510.3
2019-Sep-03 00:58N 38°23' W 124°06'  
2019-Aug-29 03:53N 45°42' W 130°03'0 0.0
2019-Aug-29 03:26N 45°42' W 130°03'0 0.4
2019-Aug-29 03:00N 45°42' W 130°03'0 0.5
2019-Aug-29 02:30N 45°43' W 130°03'4 8.1
2019-Aug-29 01:58N 45°47' W 130°01'7 1.5
2019-Aug-28 21:00N 45°54' W 130°00'   030 / 24 20.6 18.9
Track history (hours):
 
Tides and Currents Weather Stations Pressure Air Temp Water Temp Dewpoint Dewpoint Depression Visibility Wind Speed Wind Dir Waves Ship Positions

Oceanographic research ship Rachel Carson (USA)

Owner: Monterey Bay Aquarium Research Institute, Moss Landing, CA. More information available from US FCC via Universal Licensing System and Coast Guard Vessel Documentation Center.

Last reported at 2019-Sep-03 10:45 UTC. Time now 2019-Sep-21 17:20 UTC.
Position N 37°11' W 122°46'.
Warning: this ship's position is 18 days out of date.

Length 42 m; draft 3 m.

Type: Cargo ship. MMSI: 338415000.

Date/timePositionNaut miles runAvg speedWind from/ knotsBaromVisibWave heightAir tempDewpointWater temp
2019-Sep-03 10:45N 37°11' W 122°46'610.2
2019-Sep-03 10:12N 37°15' W 122°51'1110.1
2019-Sep-03 09:09N 37°22' W 123°01'210.3
2019-Sep-03 08:58N 37°23' W 123°03'510.3
2019-Sep-03 08:29N 37°26' W 123°08'510.1
2019-Sep-03 08:01N 37°29' W 123°12'510.0
2019-Sep-03 07:30N 37°33' W 123°17'510.0
2019-Sep-03 06:59N 37°36' W 123°22'5 9.6
2019-Sep-03 06:30N 37°39' W 123°26'5 9.3
2019-Sep-03 06:00N 37°43' W 123°30'5 9.5
2019-Sep-03 05:30N 37°46' W 123°35'5 9.4
2019-Sep-03 04:59N 37°50' W 123°39'5 9.5
2019-Sep-03 04:30N 37°54' W 123°42'5 9.6
2019-Sep-03 04:00N 37°58' W 123°45'510.0
2019-Sep-03 03:30N 38°02' W 123°48'5 9.9
2019-Sep-03 03:01N 38°06' W 123°51'5 9.7
2019-Sep-03 02:29N 38°10' W 123°55'5 9.7
2019-Sep-03 02:00N 38°14' W 123°58'510.0
2019-Sep-03 01:30N 38°18' W 124°02'510.3
2019-Sep-03 00:58N 38°23' W 124°06'  
2019-Aug-29 03:53N 45°42' W 130°03'0 0.0
2019-Aug-29 03:26N 45°42' W 130°03'0 0.4
2019-Aug-29 03:00N 45°42' W 130°03'0 0.5
2019-Aug-29 02:30N 45°43' W 130°03'4 8.1
2019-Aug-29 01:58N 45°47' W 130°01'7 1.5
2019-Aug-28 21:00N 45°54' W 130°00'   030 / 24 20.6 18.9

Dump ship's entire track history